createdAt,value
2019-05-14T00:01:54.123Z,9.10
2019-05-14T00:04:27.945Z,9.00
2019-05-14T00:07:02.494Z,8.90
2019-05-14T00:09:35.256Z,8.90
2019-05-14T00:12:08.004Z,8.90
2019-05-14T00:14:44.125Z,8.90
2019-05-14T00:17:16.873Z,8.80
2019-05-14T00:20:05.993Z,8.70
2019-05-14T00:22:24.443Z,8.70
2019-05-14T00:24:57.234Z,8.70
2019-05-14T00:27:31.237Z,8.70
2019-05-14T00:30:05.353Z,8.60
2019-05-14T00:32:41.469Z,8.60
2019-05-14T00:35:15.173Z,8.50
2019-05-14T00:37:47.859Z,8.50
2019-05-14T00:40:22.060Z,8.40
2019-05-14T00:42:54.864Z,8.40
2019-05-14T00:45:27.781Z,8.40
2019-05-14T00:48:01.678Z,8.30
2019-05-14T00:50:34.556Z,8.30
2019-05-14T00:53:07.303Z,8.20
2019-05-14T00:55:41.952Z,8.20
2019-05-14T00:58:14.708Z,8.10
2019-05-14T01:00:47.340Z,8.10
2019-05-14T01:03:22.318Z,8.10
2019-05-14T01:05:56.024Z,8.10
2019-05-14T01:08:28.709Z,8.10
2019-05-14T01:11:01.749Z,8.10
2019-05-14T01:13:35.683Z,8.00
2019-05-14T01:16:08.350Z,8.00
2019-05-14T01:18:41.507Z,8.00
2019-05-14T01:21:14.430Z,7.90
2019-05-14T01:23:47.136Z,7.80
2019-05-14T01:26:21.806Z,7.80
2019-05-14T01:28:54.361Z,7.70
2019-05-14T01:31:27.139Z,7.70
2019-05-14T01:34:01.974Z,7.60
2019-05-14T01:36:35.731Z,7.60
2019-05-14T01:39:08.550Z,7.50
2019-05-14T01:41:42.367Z,7.50
2019-05-14T01:44:15.269Z,7.40
2019-05-14T01:46:47.985Z,7.40
2019-05-14T01:49:22.159Z,7.30
2019-05-14T01:51:54.984Z,7.30
2019-05-14T01:54:27.755Z,7.20
2019-05-14T01:57:02.087Z,7.20
2019-05-14T01:59:35.230Z,7.10
2019-05-14T02:02:07.967Z,7.10
2019-05-14T02:04:42.649Z,7.00
2019-05-14T02:07:16.111Z,7.00
2019-05-14T02:09:49.087Z,6.90
2019-05-14T02:12:22.950Z,6.90
2019-05-14T02:14:55.581Z,6.80
2019-05-14T02:17:31.770Z,6.70
2019-05-14T02:20:05.354Z,6.70
2019-05-14T02:22:37.985Z,6.70
2019-05-14T02:25:12.341Z,6.60
2019-05-14T02:27:44.981Z,6.60
2019-05-14T02:30:20.271Z,6.60
2019-05-14T02:32:53.516Z,6.60
2019-05-14T02:35:29.816Z,6.50
2019-05-14T02:38:02.523Z,6.50
2019-05-14T02:40:35.314Z,6.40
2019-05-14T02:43:09.657Z,6.40
2019-05-14T02:46:00.743Z,6.30
2019-05-14T02:48:20.210Z,6.30
2019-05-14T02:50:52.973Z,6.30
2019-05-14T02:53:25.596Z,6.20
2019-05-14T02:55:59.913Z,6.10
2019-05-14T02:58:32.619Z,6.00
2019-05-14T03:01:05.409Z,6.00
2019-05-14T03:03:40.084Z,6.00
2019-05-14T03:06:12.701Z,5.90
2019-05-14T03:08:45.286Z,5.90
2019-05-14T03:11:20.108Z,5.80
2019-05-14T03:13:54.101Z,5.80
2019-05-14T03:16:32.621Z,5.70
2019-05-14T03:19:01.422Z,5.70
2019-05-14T03:21:34.241Z,5.60
2019-05-14T03:24:09.388Z,5.50
2019-05-14T03:26:41.531Z,5.40
2019-05-14T03:29:14.348Z,5.40
2019-05-14T03:31:51.954Z,5.30
2019-05-14T03:34:22.625Z,5.20
2019-05-14T03:36:55.725Z,5.10
2019-05-14T03:39:29.601Z,5.10
2019-05-14T03:42:02.564Z,5.00
2019-05-14T03:44:35.230Z,4.90
2019-05-14T03:47:10.256Z,4.90
2019-05-14T03:49:43.651Z,4.90
2019-05-14T03:52:19.628Z,4.80
2019-05-14T03:54:50.983Z,4.80
2019-05-14T03:57:25.113Z,4.80
2019-05-14T03:59:59.730Z,4.80
2019-05-14T04:02:32.751Z,4.70
2019-05-14T04:05:09.179Z,4.60
2019-05-14T04:07:41.465Z,4.60
2019-05-14T04:10:14.272Z,4.60
2019-05-14T04:12:49.115Z,4.60
2019-05-14T04:15:25.737Z,4.60
2019-05-14T04:17:59.722Z,4.70
2019-05-14T04:20:34.190Z,4.70
2019-05-14T04:23:09.443Z,4.70
2019-05-14T04:25:42.335Z,4.80
2019-05-14T04:28:22.536Z,4.80
2019-05-14T04:30:55.819Z,4.90
2019-05-14T04:33:30.273Z,4.90
2019-05-14T04:36:03.349Z,5.00
2019-05-14T04:38:36.050Z,5.20
2019-05-14T04:41:10.349Z,5.20
2019-05-14T04:43:44.379Z,5.30
2019-05-14T04:46:19.899Z,5.40
2019-05-14T04:48:51.704Z,5.50
2019-05-14T04:51:24.359Z,5.60
2019-05-14T04:53:59.820Z,5.70
2019-05-14T04:56:31.764Z,5.80
2019-05-14T04:59:04.672Z,5.80
2019-05-14T05:01:40.213Z,5.70
2019-05-14T05:04:11.920Z,5.80
2019-05-14T05:06:44.621Z,5.90
2019-05-14T05:09:20.002Z,5.90
2019-05-14T05:11:52.049Z,6.00
2019-05-14T05:14:25.934Z,6.10
2019-05-14T05:16:59.649Z,6.20
2019-05-14T05:19:32.656Z,6.20
2019-05-14T05:22:05.384Z,6.30
2019-05-14T05:24:38.251Z,6.30
2019-05-14T05:27:11.100Z,6.40
2019-05-14T05:29:43.807Z,6.40
2019-05-14T05:32:19.187Z,6.40
2019-05-14T05:34:51.083Z,6.50
2019-05-14T05:37:24.204Z,6.60
2019-05-14T05:39:58.398Z,6.60
2019-05-14T05:42:31.199Z,6.70
2019-05-14T05:45:04.552Z,6.80
2019-05-14T05:47:39.086Z,6.90
2019-05-14T05:50:12.144Z,7.00
2019-05-14T05:52:44.818Z,7.10
2019-05-14T05:55:19.218Z,7.10
2019-05-14T05:57:52.073Z,7.10
2019-05-14T06:00:35.931Z,7.20
2019-05-14T06:03:10.853Z,7.40
2019-05-14T06:05:43.278Z,7.60
2019-05-14T06:08:15.974Z,7.70
2019-05-14T06:10:49.096Z,7.80
2019-05-14T06:13:22.052Z,8.00
2019-05-14T06:15:54.800Z,8.10
2019-05-14T06:18:28.531Z,8.20
2019-05-14T06:21:01.594Z,8.30
2019-05-14T06:23:34.336Z,8.40
2019-05-14T06:26:11.495Z,8.50
2019-05-14T06:28:41.666Z,8.60
2019-05-14T06:31:14.366Z,8.70
2019-05-14T06:33:48.741Z,8.80
2019-05-14T06:36:21.795Z,8.90
2019-05-14T06:38:54.518Z,9.00
2019-05-14T06:41:28.350Z,9.20
2019-05-14T06:44:01.401Z,9.20
2019-05-14T06:46:34.155Z,9.30
2019-05-14T06:49:09.114Z,9.40
2019-05-14T06:51:41.508Z,9.40
2019-05-14T06:54:14.088Z,9.60
2019-05-14T06:56:48.817Z,9.70
2019-05-14T06:59:21.341Z,9.90
2019-05-14T07:01:54.022Z,10.00
2019-05-14T07:04:28.866Z,10.10
2019-05-14T07:07:02.496Z,10.20
2019-05-14T07:09:35.300Z,10.30
2019-05-14T07:12:09.103Z,10.40
2019-05-14T07:14:42.356Z,10.40
2019-05-14T07:17:15.210Z,10.60
2019-05-14T07:19:49.082Z,10.60
2019-05-14T07:22:23.931Z,10.80
2019-05-14T07:24:58.708Z,10.90
2019-05-14T07:27:31.194Z,11.00
2019-05-14T07:30:05.065Z,11.30
2019-05-14T07:32:39.498Z,11.30
2019-05-14T07:35:13.731Z,11.40
2019-05-14T07:37:48.728Z,11.40
2019-05-14T07:40:20.921Z,11.50
2019-05-14T07:42:53.727Z,11.50
2019-05-14T07:45:28.607Z,11.60
2019-05-14T07:48:00.964Z,11.90
2019-05-14T07:50:33.519Z,12.00
2019-05-14T07:53:08.444Z,12.00
2019-05-14T07:55:40.881Z,12.10
2019-05-14T07:58:13.681Z,12.20
2019-05-14T08:00:48.982Z,12.20
2019-05-14T08:03:20.994Z,12.40
2019-05-14T08:05:53.875Z,12.60
2019-05-14T08:08:29.067Z,12.80
2019-05-14T08:11:01.125Z,12.90
2019-05-14T08:13:33.889Z,12.90
2019-05-14T08:16:08.761Z,12.80
2019-05-14T08:18:41.327Z,13.00
2019-05-14T08:21:13.961Z,13.00
2019-05-14T08:23:48.141Z,13.00
2019-05-14T08:26:21.018Z,13.10
2019-05-14T08:28:53.679Z,13.20
2019-05-14T08:31:29.044Z,13.40
2019-05-14T08:34:04.842Z,13.50
2019-05-14T08:36:37.811Z,13.70
2019-05-14T08:39:10.137Z,13.50
2019-05-14T08:41:42.685Z,13.80
2019-05-14T08:44:15.342Z,14.20
2019-05-14T08:46:48.624Z,14.30
2019-05-14T08:49:37.207Z,14.00
2019-05-14T08:51:56.065Z,13.60
2019-05-14T08:54:28.865Z,13.70
2019-05-14T08:57:01.671Z,13.50
2019-05-14T08:59:34.349Z,13.90
2019-05-14T09:02:10.440Z,14.50
2019-05-14T09:04:43.377Z,14.90
2019-05-14T09:07:18.368Z,15.10
2019-05-14T09:09:50.673Z,15.20
2019-05-14T09:12:23.294Z,15.30
2019-05-14T09:14:58.692Z,15.10
2019-05-14T09:17:30.670Z,14.90
2019-05-14T09:20:07.108Z,15.20
2019-05-14T09:22:39.965Z,15.80
2019-05-14T09:25:13.143Z,16.30
2019-05-14T09:27:49.258Z,16.50
2019-05-14T09:30:22.983Z,16.30
2019-05-14T09:32:55.776Z,16.00
2019-05-14T09:35:29.251Z,15.60
2019-05-14T09:38:02.144Z,15.30
2019-05-14T09:40:34.859Z,15.60
2019-05-14T09:43:09.453Z,15.60
2019-05-14T09:45:42.319Z,16.20
2019-05-14T09:48:15.166Z,16.40
2019-05-14T09:50:49.797Z,16.00
2019-05-14T09:53:22.558Z,15.90
2019-05-14T09:59:28.011Z,16.50
2019-05-14T10:02:01.107Z,17.00
2019-05-14T10:04:39.223Z,17.50
2019-05-14T10:07:15.471Z,17.40
2019-05-14T10:09:49.074Z,17.90
2019-05-14T10:12:21.671Z,17.80
2019-05-14T10:14:54.431Z,17.60
2019-05-14T10:17:29.032Z,18.00
2019-05-14T10:20:01.753Z,18.60
2019-05-14T10:22:35.506Z,19.00
2019-05-14T10:25:09.295Z,18.80
2019-05-14T10:27:42.175Z,18.90
2019-05-14T10:30:15.185Z,18.90
2019-05-14T10:32:49.200Z,18.60
2019-05-14T10:35:22.139Z,18.60
2019-05-14T10:37:55.121Z,18.80
2019-05-14T10:40:29.229Z,18.90
2019-05-14T10:43:02.365Z,19.20
2019-05-14T10:45:35.164Z,18.40
2019-05-14T10:48:09.691Z,18.10
2019-05-14T10:50:56.373Z,17.70
2019-05-14T10:53:20.356Z,17.80
2019-05-14T10:55:52.599Z,18.20
2019-05-14T10:58:25.427Z,17.40
2019-05-14T11:00:58.933Z,16.90
2019-05-14T11:03:31.922Z,16.80
2019-05-14T11:06:05.623Z,16.50
2019-05-14T11:08:38.872Z,16.30
2019-05-14T11:11:13.462Z,16.10
2019-05-14T11:13:48.089Z,16.60
2019-05-14T11:16:22.252Z,17.20
2019-05-14T11:18:57.366Z,18.10
2019-05-14T11:21:30.328Z,18.40
2019-05-14T11:24:03.294Z,18.40
2019-05-14T11:26:38.887Z,18.20
2019-05-14T11:29:10.517Z,18.80
2019-05-14T11:31:43.208Z,19.40
2019-05-14T11:34:15.874Z,19.40
2019-05-14T11:36:49.664Z,19.10
2019-05-14T11:39:22.653Z,19.10
2019-05-14T11:41:55.238Z,19.20
2019-05-14T11:44:28.596Z,18.70
2019-05-14T11:47:02.710Z,17.90
2019-05-14T11:49:35.634Z,17.80
2019-05-14T11:52:11.504Z,18.70
2019-05-14T11:54:43.159Z,19.20
2019-05-14T11:57:15.893Z,18.50
2019-05-14T11:59:48.937Z,18.00
2019-05-14T12:02:22.817Z,18.10
2019-05-14T12:04:55.519Z,18.90
2019-05-14T12:07:28.278Z,19.60
2019-05-14T12:10:01.048Z,19.70
2019-05-14T12:12:35.245Z,19.80
2019-05-14T12:15:09.420Z,20.00
2019-05-14T12:17:42.266Z,19.70
2019-05-14T12:20:16.094Z,20.00
2019-05-14T12:22:48.961Z,20.40
2019-05-14T12:25:21.808Z,21.00
2019-05-14T12:27:54.504Z,21.00
2019-05-14T12:30:28.614Z,20.60
2019-05-14T12:33:01.837Z,20.40
2019-05-14T12:35:34.645Z,20.30
2019-05-14T12:38:09.886Z,20.10
2019-05-14T12:40:43.530Z,19.40
2019-05-14T12:43:18.614Z,18.70
2019-05-14T12:45:50.696Z,18.90
2019-05-14T12:48:23.456Z,20.20
2019-05-14T12:50:59.491Z,20.90
2019-05-14T12:53:31.789Z,21.00
2019-05-14T12:56:04.567Z,21.10
2019-05-14T12:58:42.831Z,21.20
2019-05-14T13:01:11.987Z,20.90
2019-05-14T13:03:48.347Z,20.20
2019-05-14T13:06:21.023Z,19.70
2019-05-14T13:08:53.779Z,19.00
2019-05-14T13:11:26.526Z,18.70
2019-05-14T13:13:59.422Z,18.50
2019-05-14T13:16:32.371Z,18.60
2019-05-14T13:19:05.161Z,19.40
2019-05-14T13:21:38.899Z,20.70
2019-05-14T13:24:11.910Z,21.00
2019-05-14T13:26:44.659Z,20.60
2019-05-14T13:29:19.388Z,20.40
2019-05-14T13:31:52.134Z,20.10
2019-05-14T13:34:24.795Z,20.40
2019-05-14T13:36:59.585Z,21.20
2019-05-14T13:39:32.029Z,21.60
2019-05-14T13:42:04.869Z,21.60
2019-05-14T13:44:38.518Z,22.00
2019-05-14T13:47:11.286Z,22.50
2019-05-14T13:49:43.871Z,22.50
2019-05-14T13:52:18.695Z,22.90
2019-05-14T13:54:51.372Z,23.20
2019-05-14T13:57:24.175Z,22.90
2019-05-14T13:59:58.889Z,21.50
2019-05-14T14:02:31.646Z,21.20
2019-05-14T14:05:05.184Z,21.50
2019-05-14T14:07:39.496Z,21.80
2019-05-14T14:10:14.069Z,22.50
2019-05-14T14:12:49.553Z,22.10
2019-05-14T14:15:24.029Z,21.60
2019-05-14T14:17:56.957Z,20.30
2019-05-14T14:20:29.939Z,19.00
2019-05-14T14:23:17.484Z,18.60
2019-05-14T14:25:39.496Z,19.70
2019-05-14T14:28:11.926Z,21.20
2019-05-14T14:30:45.769Z,22.40
2019-05-14T14:33:19.773Z,23.20
2019-05-14T14:35:52.563Z,22.90
2019-05-14T14:38:25.540Z,22.60
2019-05-14T14:40:59.470Z,21.20
2019-05-14T14:43:32.333Z,20.00
2019-05-14T14:46:11.209Z,19.30
2019-05-14T14:48:39.833Z,19.70
2019-05-14T14:51:12.680Z,20.30
2019-05-14T14:53:58.326Z,21.10
2019-05-14T14:56:20.058Z,22.20
2019-05-14T14:58:52.849Z,22.10
2019-05-14T15:01:30.052Z,21.30
2019-05-14T15:04:03.975Z,20.50
2019-05-14T15:06:39.771Z,20.50
2019-05-14T15:09:12.232Z,21.40
2019-05-14T15:11:44.931Z,22.00
2019-05-14T15:14:20.145Z,22.40
2019-05-14T15:16:52.443Z,22.90
2019-05-14T15:19:25.430Z,23.00
2019-05-14T15:21:59.408Z,23.10
2019-05-14T15:24:32.205Z,23.00
2019-05-14T15:27:09.398Z,21.70
2019-05-14T15:29:42.803Z,21.30
2019-05-14T15:32:14.409Z,21.50
2019-05-14T15:35:00.092Z,21.90
2019-05-14T15:37:32.943Z,22.00
2019-05-14T15:40:07.284Z,22.70
2019-05-14T15:42:39.930Z,23.00
2019-05-14T15:45:12.704Z,22.80
2019-05-14T15:47:45.417Z,22.40
2019-05-14T15:50:20.245Z,22.50
2019-05-14T15:52:53.092Z,22.40
2019-05-14T15:55:28.845Z,22.10
2019-05-14T15:58:03.546Z,21.60
2019-05-14T16:00:38.498Z,21.20
2019-05-14T16:03:11.108Z,21.10
2019-05-14T16:05:43.872Z,20.70
2019-05-14T16:08:18.838Z,21.30
2019-05-14T16:10:51.376Z,21.80
2019-05-14T16:13:24.053Z,22.60
2019-05-14T16:15:56.745Z,21.30
2019-05-14T16:18:29.638Z,21.10
2019-05-14T16:21:03.417Z,21.40
2019-05-14T16:23:38.602Z,21.90
2019-05-14T16:26:11.118Z,21.90
2019-05-14T16:28:43.930Z,22.30
2019-05-14T16:31:18.411Z,21.80
2019-05-14T16:33:52.653Z,21.60
2019-05-14T16:36:25.381Z,21.30
2019-05-14T16:38:58.598Z,20.90
2019-05-14T16:41:31.564Z,20.70
2019-05-14T16:44:05.394Z,21.10
2019-05-14T16:46:38.603Z,20.90
2019-05-14T16:49:11.502Z,20.90
2019-05-14T16:51:44.421Z,20.70
2019-05-14T16:54:18.401Z,20.60
2019-05-14T16:56:51.207Z,20.60
2019-05-14T16:59:24.004Z,20.70
2019-05-14T17:01:58.501Z,21.00
2019-05-14T17:04:31.279Z,21.50
2019-05-14T17:07:04.052Z,20.80
2019-05-14T17:09:38.503Z,20.50
2019-05-14T17:12:14.292Z,19.80
2019-05-14T17:14:47.319Z,19.90
2019-05-14T17:17:20.212Z,19.80
2019-05-14T17:19:52.947Z,20.00
2019-05-14T17:22:30.787Z,20.10
2019-05-14T17:25:02.718Z,19.80
2019-05-14T17:27:39.460Z,19.20
2019-05-14T17:30:12.472Z,19.10
2019-05-14T17:32:45.242Z,19.20
2019-05-14T17:35:19.618Z,18.70
2019-05-14T17:37:52.588Z,18.60
2019-05-14T17:40:25.317Z,18.30
2019-05-14T17:42:59.227Z,17.90
2019-05-14T17:45:32.197Z,17.40
2019-05-14T17:48:05.363Z,17.20
2019-05-14T17:50:38.586Z,17.30
2019-05-14T17:53:11.516Z,17.60
2019-05-14T17:55:47.536Z,18.10
2019-05-14T17:58:20.099Z,18.30
2019-05-14T18:00:52.838Z,18.10
2019-05-14T18:03:29.038Z,17.80
2019-05-14T18:06:02.138Z,17.70
2019-05-14T18:08:35.126Z,17.70
2019-05-14T18:11:08.793Z,18.00
2019-05-14T18:13:41.675Z,18.10
2019-05-14T18:16:15.672Z,17.90
2019-05-14T18:18:49.473Z,17.70
2019-05-14T18:21:22.620Z,17.70
2019-05-14T18:23:55.383Z,17.60
2019-05-14T18:26:29.081Z,17.60
2019-05-14T18:29:04.451Z,17.30
2019-05-14T18:31:43.109Z,16.90
2019-05-14T18:34:11.212Z,16.40
2019-05-14T18:36:43.975Z,16.10
2019-05-14T18:39:20.780Z,15.80
2019-05-14T18:41:52.428Z,15.40
2019-05-14T18:44:25.173Z,15.20
2019-05-14T18:46:59.341Z,15.00
2019-05-14T18:49:32.346Z,14.80
2019-05-14T18:52:05.074Z,14.70
2019-05-14T18:54:38.790Z,14.50
2019-05-14T18:57:12.202Z,14.30
2019-05-14T18:59:45.402Z,14.10
2019-05-14T19:02:18.520Z,14.00
2019-05-14T19:04:51.712Z,13.90
2019-05-14T19:07:28.734Z,13.80
2019-05-14T19:10:03.161Z,13.70
2019-05-14T19:12:38.707Z,13.60
2019-05-14T19:15:12.134Z,13.50
2019-05-14T19:17:44.932Z,13.40
2019-05-14T19:20:19.235Z,13.30
2019-05-14T19:22:52.252Z,13.30
2019-05-14T19:25:25.419Z,13.10
2019-05-14T19:27:58.408Z,13.00
2019-05-14T19:30:32.274Z,12.90
2019-05-14T19:33:05.058Z,12.90
2019-05-14T19:35:39.422Z,12.80
2019-05-14T19:38:12.485Z,12.70
2019-05-14T19:40:48.311Z,12.60
2019-05-14T19:43:20.895Z,12.60
2019-05-14T19:45:55.505Z,12.50
2019-05-14T19:48:30.512Z,12.50
2019-05-14T19:51:02.959Z,12.50
2019-05-14T19:53:35.750Z,12.40
2019-05-14T19:56:09.772Z,12.30
2019-05-14T19:58:42.730Z,12.30
2019-05-14T20:01:15.581Z,12.30
2019-05-14T20:03:48.345Z,12.20
2019-05-14T20:06:22.186Z,12.20
2019-05-14T20:08:54.950Z,12.10
2019-05-14T20:11:29.018Z,12.00
2019-05-14T20:14:01.914Z,12.00
2019-05-14T20:16:34.640Z,11.90
2019-05-14T20:19:08.826Z,11.80
2019-05-14T20:21:41.653Z,11.80
2019-05-14T20:24:14.543Z,11.70
2019-05-14T20:27:03.514Z,11.60
2019-05-14T20:29:23.842Z,11.60
2019-05-14T20:31:59.455Z,11.50
2019-05-14T20:34:31.259Z,11.50
2019-05-14T20:37:05.092Z,11.40
2019-05-14T20:39:39.775Z,11.30
2019-05-14T20:42:12.526Z,11.20
2019-05-14T20:44:45.278Z,11.20
2019-05-14T20:47:19.887Z,11.10
2019-05-14T20:49:52.664Z,10.90
2019-05-14T20:52:25.341Z,10.90
2019-05-14T20:54:58.390Z,10.80
2019-05-14T20:57:33.461Z,10.70
2019-05-14T21:00:08.162Z,10.70
2019-05-14T21:02:41.156Z,10.50
2019-05-14T21:05:14.069Z,10.40
2019-05-14T21:07:49.148Z,10.30
2019-05-14T21:10:21.620Z,10.20
2019-05-14T21:12:58.083Z,10.20
2019-05-14T21:15:30.780Z,10.20
2019-05-14T21:18:03.531Z,10.10
2019-05-14T21:20:36.238Z,10.00
2019-05-14T21:23:09.096Z,10.00
2019-05-14T21:25:42.046Z,9.90
2019-05-14T21:28:14.769Z,9.80
2019-05-14T21:30:48.525Z,9.70
2019-05-14T21:33:21.564Z,9.60
2019-05-14T21:35:54.332Z,9.50
2019-05-14T21:38:28.653Z,9.50
2019-05-14T21:41:01.610Z,9.50
2019-05-14T21:43:34.421Z,9.50
2019-05-14T21:46:08.141Z,9.40
2019-05-14T21:48:41.990Z,9.30
2019-05-14T21:51:14.724Z,9.20
2019-05-14T21:53:48.305Z,9.10
2019-05-14T21:56:21.853Z,9.00
2019-05-14T21:58:54.807Z,8.90
2019-05-14T22:01:30.978Z,8.90
2019-05-14T22:04:03.063Z,8.80
2019-05-14T22:06:37.826Z,8.70
2019-05-14T22:09:11.676Z,8.70
2019-05-14T22:11:44.477Z,8.60
2019-05-14T22:14:18.782Z,8.60
2019-05-14T22:16:51.594Z,8.60
2019-05-14T22:19:24.348Z,8.50
2019-05-14T22:21:58.668Z,8.50
2019-05-14T22:24:31.471Z,8.50
2019-05-14T22:27:05.206Z,8.50
2019-05-14T22:29:39.634Z,8.70
2019-05-14T22:32:12.406Z,8.80
2019-05-14T22:34:45.172Z,8.90
2019-05-14T22:37:19.957Z,8.90
2019-05-14T22:39:52.502Z,9.00
2019-05-14T22:42:25.246Z,9.00
2019-05-14T22:44:58.425Z,9.10
2019-05-14T22:47:31.323Z,9.20
2019-05-14T22:50:05.653Z,9.20
2019-05-14T22:52:38.820Z,9.20
2019-05-14T22:55:12.327Z,9.30
2019-05-14T22:57:44.961Z,9.30
2019-05-14T23:00:20.724Z,9.30
2019-05-14T23:02:52.776Z,9.30
2019-05-14T23:05:25.382Z,9.30
2019-05-14T23:08:01.053Z,9.30
2019-05-14T23:10:33.681Z,9.30
2019-05-14T23:13:09.399Z,9.30
2019-05-14T23:15:42.290Z,9.30
2019-05-14T23:18:14.948Z,9.30
2019-05-14T23:20:49.403Z,9.30
2019-05-14T23:23:22.210Z,9.20
2019-05-14T23:25:58.903Z,9.20
2019-05-14T23:28:42.593Z,9.20
2019-05-14T23:31:08.471Z,9.20
2019-05-14T23:33:43.017Z,9.10
2019-05-14T23:36:18.190Z,9.00
2019-05-14T23:38:50.322Z,8.90
2019-05-14T23:41:23.038Z,8.90
2019-05-14T23:43:55.721Z,8.80
2019-05-14T23:46:29.172Z,8.70
2019-05-14T23:49:02.182Z,8.70
2019-05-14T23:51:34.838Z,8.70
2019-05-14T23:54:08.983Z,8.70
2019-05-14T23:56:45.844Z,8.70
2019-05-14T23:59:18.604Z,8.70
